Latest Weather Observations for Perth Airport

IDW60901

Issued at 1:21 pm WST Tuesday 4 August 2015 (issued every 10 minutes, with the page automatically refreshed every 10 minutes)

About weather observations | Map of Perth area stations | Latest observations for Perth area | Other Formats
Station Details ID: 009021 Name: PERTH AIRPORT Lat: -31.93 Lon: 115.98 Height: 15.4 m
Data from the previous 72 hours. | See also: Recent months at Perth Airport
Date/Time
WST
Tmp

°C
App
Tmp
°C
Dew
Point
°C
Rel
Hum
%
Delta-T

°C
Wind Press
QNH
hPa
Press
MSL
hPa
Rain
since
9 am
mm
Dir
 
Spd
km/h
Gust
km/h
Spd
kts
Gust
kts
04/01:00pm 17.0 11.9 4.1 42 6.0 ENE 20 28 11 15 1031.4 - 0.0
04/12:30pm 16.9 11.4 3.9 42 6.1 ENE 22 30 12 16 1031.8 - 0.0
04/12:00pm 16.9 12.0 5.1 45 5.6 ENE 20 30 11 16 1032.2 1032.3 0.0
04/11:30am 16.0 10.6 4.6 46 5.4 ENE 22 32 12 17 1032.9 - 0.0
04/11:00am 14.9 11.9 6.1 55 4.2 ESE 11 17 6 9 1033.4 - 0.0
04/10:30am 14.0 11.0 6.2 59 3.7 ESE 11 15 6 8 1033.7 - 0.0
04/10:00am 13.0 10.0 6.2 63 3.2 ESE 11 15 6 8 1034.0 - 0.0
04/09:30am 12.2 8.0 5.7 64 3.0 E 17 22 9 12 1034.0 - 0.0
04/09:00am 11.9 6.7 5.6 65 2.9 E 22 32 12 17 1033.7 1033.8 0.0
04/08:30am 11.4 7.9 5.5 67 2.7 E 13 19 7 10 1033.5 - 0.0
04/08:00am 10.3 7.7 5.9 74 2.0 NNE 9 11 5 6 1033.8 - 0.0
04/07:30am 10.1 6.6 5.5 73 2.1 ENE 13 19 7 10 1033.4 - 0.0
04/07:00am 9.9 6.4 5.5 74 2.0 ENE 13 17 7 9 1033.0 - 0.0
04/06:30am 9.9 6.4 5.5 74 2.0 ENE 13 17 7 9 1033.0 - 0.0
04/06:00am 10.0 6.2 5.6 74 2.0 NE 15 19 8 10 1032.9 1033.0 0.0
04/05:30am 10.0 6.6 5.8 75 1.9 ENE 13 17 7 9 1032.8 - 0.0
04/05:00am 10.4 6.9 5.6 72 2.2 ENE 13 17 7 9 1032.5 - 0.0
04/04:30am 10.7 6.8 5.4 70 2.4 ENE 15 19 8 10 1032.7 - 0.0
04/04:00am 10.9 6.1 5.6 70 2.4 ENE 20 28 11 15 1032.4 - 0.0
04/03:30am 10.7 7.3 5.9 72 2.2 E 13 20 7 11 1032.4 - 0.0
04/03:00am 9.1 6.9 6.0 81 1.4 ESE 7 13 4 7 1032.3 1032.4 0.0
04/02:30am 8.0 6.4 6.5 90 0.7 SE 4 7 2 4 1032.3 - 0.0
04/02:00am 8.7 7.9 6.5 86 1.0 CALM 0 0 0 0 1032.5 - 0.0
04/01:30am 8.3 5.8 6.5 88 0.8 SE 9 11 5 6 1032.5 - 0.0
04/01:00am 9.5 6.3 6.9 84 1.2 ESE 13 13 7 7 1032.4 - 0.0
04/12:30am 9.2 6.1 7.1 87 1.0 ESE 13 17 7 9 1032.6 - 0.0
04/12:00am 8.9 6.0 6.7 86 1.0 ESE 11 13 6 7 1032.7 1032.8 0.0
 
Date/Time
WST
Tmp

°C
App
Tmp
°C
Dew
Point
°C
Rel
Hum
%
Delta-T

°C
Wind Press
QNH
hPa
Press
MSL
hPa
Rain
since
9 am
mm
Dir
 
Spd
km/h
Gust
km/h
Spd
kts
Gust
kts
03/11:30pm 9.8 6.6 7.0 83 1.3 ESE 13 15 7 8 1033.1 - 0.0
03/11:00pm 10.9 8.0 6.6 75 2.0 ESE 11 15 6 8 1033.3 - 0.0
03/10:30pm 11.1 8.2 6.4 73 2.2 E 11 15 6 8 1033.4 - 0.0
03/10:00pm 10.7 9.2 6.9 77 1.8 E 4 7 2 4 1033.6 - 0.0
03/09:30pm 11.6 9.1 6.5 71 2.4 ENE 9 11 5 6 1033.6 - 0.0
03/09:00pm 10.8 9.0 7.2 78 1.7 ENE 6 11 3 6 1033.6 1033.7 0.0
03/08:30pm 10.8 8.4 7.0 77 1.8 E 9 15 5 8 1033.3 - 0.0
03/08:00pm 11.1 8.4 7.3 77 1.8 ESE 11 15 6 8 1033.0 - 0.0
03/07:30pm 11.9 8.8 7.3 73 2.2 SE 13 17 7 9 1033.0 - 0.0
03/07:00pm 12.8 9.6 6.9 67 2.8 ESE 13 15 7 8 1032.8 - 0.0
03/06:30pm 12.9 9.8 7.3 69 2.7 ESE 13 19 7 10 1032.8 - 0.0
03/06:00pm 13.6 10.5 7.2 65 3.1 ESE 13 15 7 8 1032.7 1032.8 0.0
03/05:30pm 14.5 11.4 7.3 62 3.5 ESE 13 17 7 9 1032.3 - 0.0
03/05:00pm 15.7 12.0 6.1 53 4.6 E 15 19 8 10 1032.1 - 0.0
03/04:30pm 16.4 13.0 6.0 50 5.0 E 13 17 7 9 1032.1 - 0.0
03/04:00pm 16.8 12.5 5.2 46 5.6 E 17 20 9 11 1032.1 - 0.0
03/03:30pm 17.1 13.2 5.4 46 5.6 E 15 19 8 10 1032.2 - 0.0
03/03:00pm 17.4 13.9 5.5 45 5.7 ENE 13 20 7 11 1032.3 1032.4 0.0
03/02:30pm 17.4 14.2 5.0 44 5.9 E 11 24 6 13 1032.4 - 0.0
03/02:00pm 17.4 13.7 4.4 42 6.1 E 13 26 7 14 1032.4 - 0.0
03/01:30pm 17.2 12.3 4.9 44 5.9 ESE 20 28 11 15 1032.6 - 0.0
03/01:00pm 16.5 12.5 4.8 46 5.5 ENE 15 28 8 15 1033.0 - 0.0
03/12:30pm 16.5 12.4 4.2 44 5.8 ENE 15 22 8 12 1033.6 - 0.0
03/12:00pm 16.6 12.5 4.3 44 5.7 E 15 20 8 11 1034.1 1034.2 0.0
03/11:30am 16.6 12.9 4.3 44 5.8 E 13 30 7 16 1034.5 - 0.0
03/11:00am 15.4 11.1 5.4 51 4.8 E 17 24 9 13 1034.9 - 0.0
03/10:30am 14.4 11.8 5.9 56 4.1 ESE 9 15 5 8 1035.1 - 0.0
03/10:00am 13.2 10.1 5.7 60 3.5 ESE 11 15 6 8 1035.5 - 0.0
03/09:30am 12.4 9.4 5.9 64 3.1 E 11 17 6 9 1035.6 - 0.0
03/09:00am 11.4 7.2 5.5 67 2.7 E 17 24 9 13 1035.5 1035.6 0.0
03/08:30am 10.1 5.8 5.4 72 2.1 ENE 17 22 9 12 1035.3 - 0.0
03/08:00am 9.0 4.6 4.7 74 1.9 ENE 17 22 9 12 1035.1 - 0.0
03/07:30am 8.4 3.3 4.2 75 1.8 ENE 20 26 11 14 1034.8 - 0.0
03/07:00am 7.9 3.8 4.4 78 1.5 ENE 15 19 8 10 1034.3 - 0.0
03/06:30am 8.0 5.1 4.5 78 1.5 ENE 9 11 5 6 1034.0 - 0.0
03/06:00am 7.6 3.9 4.6 81 1.3 ENE 13 19 7 10 1033.7 1033.8 0.0
03/05:30am 6.9 3.2 4.3 83 1.1 ENE 13 15 7 8 1033.8 - 0.0
03/05:00am 5.5 2.5 4.1 91 0.6 NE 9 11 5 6 1033.7 - 0.0
03/04:30am 4.3 1.8 3.8 97 0.2 SE 6 9 3 5 1033.8 - 0.0
03/04:00am 4.5 3.1 3.5 93 0.4 CALM 0 0 0 0 1033.8 - 0.0
03/03:30am 4.7 2.6 4.0 95 0.3 ESE 4 7 2 4 1033.9 - 0.0
03/03:00am 4.5 1.9 4.0 97 0.2 ESE 7 9 4 5 1034.1 1034.2 0.0
03/02:30am 5.2 2.2 4.2 93 0.4 ENE 9 11 5 6 1034.3 - 0.0
03/02:00am 5.5 2.6 4.6 94 0.4 ENE 9 13 5 7 1034.5 - 0.0
03/01:30am 5.0 2.4 4.0 93 0.4 ENE 7 9 4 5 1034.3 - 0.0
03/01:00am 5.5 2.9 4.1 91 0.6 ENE 7 11 4 6 1034.3 - 0.0
03/12:30am 7.2 4.6 4.4 82 1.2 ENE 7 13 4 7 1034.0 - 0.0
03/12:00am 9.3 6.4 4.8 73 2.0 E 9 15 5 8 1034.0 1034.1 0.0
 
Date/Time
WST
Tmp

°C
App
Tmp
°C
Dew
Point
°C
Rel
Hum
%
Delta-T

°C
Wind Press
QNH
hPa
Press
MSL
hPa
Rain
since
9 am
mm
Dir
 
Spd
km/h
Gust
km/h
Spd
kts
Gust
kts
02/11:30pm 6.9 3.6 4.8 86 0.9 ENE 11 13 6 7 1034.1 - 0.0
02/11:00pm 6.4 3.1 4.8 89 0.7 E 11 15 6 8 1034.1 - 0.0
02/10:30pm 6.3 3.4 4.9 91 0.6 E 9 13 5 7 1034.2 - 0.0
02/10:00pm 6.3 3.9 5.1 92 0.5 E 7 9 4 5 1034.4 - 0.0
02/09:30pm 6.9 4.1 5.3 89 0.7 E 9 15 5 8 1034.5 - 0.0
02/09:00pm 8.1 4.9 5.1 81 1.3 E 11 19 6 10 1034.4 1034.5 0.0
02/08:30pm 10.3 7.5 5.2 70 2.3 ESE 9 13 5 7 1034.3 - 0.0
02/08:00pm 8.5 5.4 5.6 82 1.3 E 11 15 6 8 1034.1 - 0.0
02/07:30pm 9.0 6.0 5.9 81 1.4 E 11 15 6 8 1033.9 - 0.0
02/07:00pm 10.1 6.7 5.9 75 1.9 E 13 15 7 8 1033.9 - 0.0
02/06:30pm 10.9 7.5 5.9 71 2.3 ENE 13 15 7 8 1033.6 - 0.0
02/06:00pm 12.3 9.1 5.3 62 3.2 E 11 15 6 8 1033.3 1033.4 0.0
02/05:30pm 14.0 10.3 4.6 53 4.3 E 13 17 7 9 1032.8 - 0.0
02/05:00pm 15.2 10.7 4.0 47 5.2 E 17 20 9 11 1032.5 - 0.0
02/04:30pm 15.7 10.8 3.9 45 5.5 E 19 30 10 16 1032.2 - 0.0
02/04:00pm 16.0 10.9 3.2 42 5.8 ESE 19 22 10 12 1031.9 - 0.0
02/03:30pm 16.2 10.6 3.5 42 5.8 E 22 30 12 16 1031.7 - 0.0
02/03:00pm 16.1 9.7 3.0 41 5.9 E 26 33 14 18 1031.6 1031.7 0.0
02/02:30pm 16.1 11.4 3.3 42 5.9 E 17 24 9 13 1031.7 - 0.0
02/02:00pm 15.9 10.9 3.6 44 5.7 E 19 30 10 16 1031.7 - 0.0
02/01:30pm 15.9 11.3 3.6 44 5.7 E 17 22 9 12 1032.0 - 0.0
02/01:00pm 15.3 11.4 3.6 45 5.4 ENE 13 24 7 13 1032.4 - 0.0
02/12:30pm 15.0 10.7 3.5 46 5.2 E 15 26 8 14 1033.0 - 0.0
02/12:00pm 14.6 10.3 3.2 46 5.1 E 15 32 8 17 1033.6 1033.7 0.0
02/11:30am 14.3 8.9 2.7 45 5.2 ENE 20 30 11 16 1033.9 - 0.0
02/11:00am 13.7 8.9 2.8 47 4.8 E 17 28 9 15 1034.3 - 0.0
02/10:30am 12.7 7.6 3.1 52 4.2 E 19 26 10 14 1034.4 - 0.0
02/10:00am 12.2 6.9 3.0 53 4.0 E 20 28 11 15 1034.5 - 0.0
02/09:30am 11.7 7.5 3.8 58 3.5 E 15 22 8 12 1034.4 - 0.0
02/09:00am 10.8 8.2 6.3 74 2.1 ESE 9 15 5 8 1034.2 1034.3 0.0
02/08:30am 9.4 7.9 6.6 83 1.3 ESE 4 9 2 5 1034.0 - 0.0
02/08:00am 8.4 7.5 6.2 86 1.0 CALM 0 0 0 0 1033.7 - 0.0
02/07:30am 7.5 6.1 5.7 88 0.8 E 2 6 1 3 1033.3 - 0.0
02/07:00am 7.1 5.7 5.3 88 0.8 E 2 9 1 5 1033.0 - 0.0
02/06:30am 6.9 5.1 5.3 89 0.7 E 4 7 2 4 1032.7 - 0.0
02/06:00am 6.7 5.2 4.9 88 0.8 E 2 7 1 4 1032.0 1032.1 0.0
02/05:30am 6.4 3.9 4.8 89 0.7 E 7 9 4 5 1032.0 - 0.0
02/05:00am 6.4 3.9 4.8 89 0.7 E 7 9 4 5 1032.0 - 0.0
02/04:30am 6.4 4.0 4.5 88 0.8 E 6 7 3 4 1031.5 - 0.0
02/04:00am 6.3 3.7 4.4 88 0.8 E 7 9 4 5 1031.4 - 0.0
02/03:30am 6.1 4.9 4.7 91 0.6 CALM 0 0 0 0 1031.4 - 0.0
02/03:00am 5.7 3.3 4.3 91 0.6 E 6 7 3 4 1031.3 1031.4 0.0
02/02:30am 4.9 2.8 3.9 93 0.4 E 4 7 2 4 1031.3 - 0.0
02/02:00am 4.1 1.3 3.4 95 0.3 E 7 9 4 5 1031.2 - 0.0
02/01:30am 4.2 1.7 3.5 95 0.3 E 6 7 3 4 1031.0 - 0.0
02/01:00am 4.3 1.5 3.3 93 0.4 E 7 11 4 6 1031.2 - 0.0
02/12:30am 4.8 2.1 3.8 93 0.4 SE 7 11 4 6 1031.0 - 0.0
02/12:00am 5.1 2.0 3.6 90 0.6 SSE 9 9 5 5 1030.8 1030.9 0.0
 
Date/Time
WST
Tmp

°C
App
Tmp
°C
Dew
Point
°C
Rel
Hum
%
Delta-T

°C
Wind Press
QNH
hPa
Press
MSL
hPa
Rain
since
9 am
mm
Dir
 
Spd
km/h
Gust
km/h
Spd
kts
Gust
kts
01/11:30pm 5.5 2.5 4.1 91 0.6 SE 9 11 5 6 1030.8 - 0.0
01/11:00pm 6.3 3.0 4.4 88 0.8 SSE 11 17 6 9 1030.6 - 0.0
01/10:30pm 7.2 3.5 4.7 84 1.1 SE 13 19 7 10 1030.4 - 0.0
01/10:00pm 7.7 4.0 4.5 80 1.4 SE 13 17 7 9 1030.3 - 0.0
01/09:30pm 8.7 5.2 5.3 79 1.5 SE 13 15 7 8 1030.2 - 0.0
01/09:00pm 9.3 6.1 5.3 76 1.8 ESE 11 13 6 7 1030.0 1030.1 0.0
01/08:30pm 10.8 7.1 4.5 65 2.8 ESE 13 15 7 8 1029.6 - 0.0
01/08:00pm 11.8 8.0 3.9 58 3.5 ESE 13 15 7 8 1029.2 - 0.0
01/07:30pm 11.7 8.1 5.1 64 3.0 ESE 13 17 7 9 1028.7 - 0.0
01/07:00pm 12.7 7.8 4.3 56 3.8 ESE 19 22 10 12 1028.3 - 0.0
01/06:30pm 13.6 8.6 3.8 51 4.4 E 19 24 10 13 1027.7 - 0.0
01/06:00pm 14.2 8.5 2.9 46 5.0 ESE 22 33 12 18 1027.2 1027.3 0.0
01/05:30pm 14.5 8.9 3.7 48 4.9 SE 22 30 12 16 1026.8 - 0.0
01/05:00pm 14.9 9.4 4.0 48 5.0 ESE 22 30 12 16 1026.5 - 0.0
01/04:30pm 15.3 10.5 4.8 49 4.9 ESE 19 24 10 13 1026.0 - 0.0
01/04:00pm 15.4 9.8 5.5 51 4.7 ESE 24 30 13 16 1025.6 - 0.0
01/03:30pm 15.7 8.9 5.1 49 5.0 ESE 30 37 16 20 1025.1 - 0.0
01/03:00pm 16.0 10.4 5.2 48 5.1 ESE 24 39 13 21 1024.6 1024.7 0.0
01/02:30pm 16.8 10.5 5.5 47 5.4 SE 28 37 15 20 1024.3 - 0.0
01/02:00pm 16.6 9.8 5.3 47 5.4 SE 30 39 16 21 1024.1 - 0.0
01/01:30pm 16.4 9.7 5.5 48 5.2 SE 30 41 16 22 1024.0 - 0.0

Latest Capital City Observations: Canberra | Sydney | Melbourne | Brisbane | Adelaide | Perth | Hobart | Darwin

Other Formats:

Comma delimited format used in spreadsheet applications
http://www.bom.gov.au/fwo/IDW60901/IDW60901.94610.axf

JavaScript Object Notation format (JSON) in row-major order
http://www.bom.gov.au/fwo/IDW60901/IDW60901.94610.json